Time;durP1;ratioP1;P1;durP2;ratioP2;P2;SDS_P1;SDS_P2;PMS_P1;PMS_P2;Temp;Humidity;BMP_temperature;BMP_pressure;BME280_temperature;BME280_humidity;BME280_pressure;Samples;Min_cycle;Max_cycle;Signal;HPM_P1;HPM_P2
2024/01/19 00:04:51;;;;;;;8.20;4.20;;;;;;;-0.58;86.83;98897.78;7232706;40;20618;31
2024/01/19 00:10:12;;;;;;;6.10;3.75;;;;;;;-0.52;86.64;98905.28;7237797;40;20478;31
2024/01/19 00:15:47;;;;;;;10.63;4.13;;;;;;;-0.52;86.95;98910.59;7299809;39;20378;31
2024/01/19 00:21:24;;;;;;;6.60;4.00;;;;;;;-0.48;86.69;98920.84;7226057;40;20604;31
2024/01/19 00:26:59;;;;;;;6.15;3.60;;;;;;;-0.50;86.69;98928.06;7197984;40;20282;31
2024/01/19 00:32:19;;;;;;;6.93;3.70;;;;;;;-0.56;87.06;98943.50;7166421;40;20405;31
2024/01/19 00:37:55;;;;;;;6.57;4.03;;;;;;;-0.67;86.80;98946.88;7185120;40;20296;31
2024/01/19 00:43:16;;;;;;;10.90;4.75;;;;;;;-0.71;86.96;98939.25;7258047;39;20246;31
2024/01/19 00:48:37;;;;;;;9.10;4.60;;;;;;;-0.76;86.87;98949.28;7242882;40;20340;31
2024/01/19 00:54:14;;;;;;;9.20;5.27;;;;;;;-0.83;86.67;98948.84;7226370;40;20374;31
2024/01/19 00:59:34;;;;;;;8.40;4.87;;;;;;;-0.84;86.65;98962.19;7234217;39;20253;31
2024/01/19 01:05:09;;;;;;;7.83;5.10;;;;;;;-0.92;86.07;98957.37;7319485;39;20311;31
2024/01/19 01:10:41;;;;;;;8.70;4.30;;;;;;;-0.99;85.36;98969.31;7283552;40;20295;31
2024/01/19 01:16:16;;;;;;;7.60;4.30;;;;;;;-1.07;85.15;98974.28;7216773;40;20236;31
2024/01/19 01:21:37;;;;;;;7.33;4.17;;;;;;;-1.04;85.58;98979.34;7247871;40;20251;31
2024/01/19 01:27:13;;;;;;;6.70;3.65;;;;;;;-1.10;86.27;98990.34;7251721;40;20245;31
2024/01/19 01:32:34;;;;;;;6.43;3.67;;;;;;;-1.16;85.25;99010.09;7248213;40;20368;31
2024/01/19 01:37:55;;;;;;;5.33;3.50;;;;;;;-1.20;84.96;99020.94;7244307;40;20285;31
2024/01/19 01:48:35;;;;;;;4.65;3.60;;;;;;;-1.50;84.82;99044.88;7281604;39;20425;31
2024/01/19 01:54:10;;;;;;;5.57;3.63;;;;;;;-1.50;85.33;99039.59;7298121;39;20491;31
2024/01/19 01:59:45;;;;;;;7.20;4.43;;;;;;;-1.58;83.46;99055.09;7269528;39;20296;31
2024/01/19 02:05:22;;;;;;;8.67;4.50;;;;;;;-1.74;85.12;99070.16;7236622;40;20616;31
2024/01/19 02:10:57;;;;;;;9.90;4.80;;;;;;;-1.63;85.68;99075.66;7209913;40;20747;31
2024/01/19 02:21:34;;;;;;;6.33;4.90;;;;;;;-1.63;85.16;99086.22;7233541;40;21619;31
2024/01/19 02:27:10;;;;;;;8.10;4.75;;;;;;;-1.79;85.12;99096.00;7226649;40;20265;31
2024/01/19 02:32:45;;;;;;;9.43;4.97;;;;;;;-1.83;84.81;99097.97;7335144;39;20263;31
2024/01/19 02:43:22;;;;;;;10.87;5.53;;;;;;;-1.81;85.79;99090.81;7288264;39;21295;31
2024/01/19 02:53:44;;;;;;;9.17;5.43;;;;;;;-1.60;85.70;99108.00;7252519;40;21241;31
2024/01/19 03:04:21;;;;;;;9.65;5.00;;;;;;;-1.55;85.61;99111.22;7290352;39;20284;31
2024/01/19 03:09:56;;;;;;;8.80;4.85;;;;;;;-1.50;85.31;99110.94;7243765;40;20261;31
2024/01/19 03:15:31;;;;;;;7.55;5.35;;;;;;;-1.51;85.66;99119.81;7218313;40;20274;31
2024/01/19 03:21:07;;;;;;;6.25;5.05;;;;;;;-1.46;86.55;99123.87;7206456;40;20411;31
2024/01/19 03:26:44;;;;;;;8.85;5.20;;;;;;;-1.44;85.88;99139.63;7218629;40;20227;31
2024/01/19 03:32:05;;;;;;;8.57;5.57;;;;;;;-1.38;86.96;99140.13;7220607;40;20395;31
2024/01/19 03:37:42;;;;;;;7.85;5.30;;;;;;;-1.29;86.46;99137.84;7250022;40;20626;31
2024/01/19 03:43:17;;;;;;;8.83;5.67;;;;;;;-1.32;85.88;99132.75;7198836;40;20253;31
2024/01/19 03:48:53;;;;;;;8.57;5.60;;;;;;;-1.32;86.74;99138.91;7162671;40;20243;31
2024/01/19 03:54:29;;;;;;;8.35;5.30;;;;;;;-1.24;86.20;99141.06;7091896;40;20255;31
2024/01/19 04:00:05;;;;;;;9.53;5.77;;;;;;;-1.17;86.52;99156.44;7148483;40;21372;31
2024/01/19 04:05:24;;;;;;;9.85;5.70;;;;;;;-1.25;87.07;99152.56;7154625;40;20247;31
2024/01/19 04:11:01;;;;;;;8.75;5.10;;;;;;;-1.19;87.18;99149.56;7241083;40;20242;31
2024/01/19 04:16:36;;;;;;;7.45;5.15;;;;;;;-1.10;87.15;99151.62;7235078;40;20388;31
2024/01/19 04:21:57;;;;;;;8.23;5.63;;;;;;;-1.10;86.50;99152.50;7250897;39;21561;31
2024/01/19 04:27:33;;;;;;;11.50;6.00;;;;;;;-1.14;86.74;99153.59;7267562;39;20320;31
2024/01/19 04:32:53;;;;;;;8.50;5.40;;;;;;;-1.12;86.95;99164.09;7157090;40;20309;31
2024/01/19 04:38:28;;;;;;;10.33;5.27;;;;;;;-1.25;86.61;99161.34;7174324;40;20255;31
2024/01/19 04:44:06;;;;;;;9.75;5.75;;;;;;;-1.39;86.37;99171.91;7182195;40;20267;31
2024/01/19 04:49:25;;;;;;;12.40;5.80;;;;;;;-1.30;85.96;99183.72;7198447;40;20480;31
2024/01/19 04:54:46;;;;;;;8.10;5.50;;;;;;;-1.45;86.50;99186.34;7275631;39;20230;31
2024/01/19 05:00:24;;;;;;;15.60;6.10;;;;;;;-1.44;86.61;99198.63;7278291;39;20371;31
2024/01/19 05:05:44;;;;;;;10.70;6.05;;;;;;;-1.44;87.31;99200.41;7244887;40;20383;31
2024/01/19 05:11:05;;;;;;;11.00;6.10;;;;;;;-1.40;87.22;99212.50;7262365;40;20281;31
2024/01/19 05:16:38;;;;;;;9.60;6.07;;;;;;;-1.43;86.46;99216.19;7036674;40;20220;31
2024/01/19 05:21:59;;;;;;;9.27;6.40;;;;;;;-1.35;87.05;99221.00;7231595;40;20245;31
2024/01/19 05:27:19;;;;;;;12.30;6.40;;;;;;;-1.29;86.97;99228.56;7265674;40;20241;31
2024/01/19 05:32:55;;;;;;;9.40;6.80;;;;;;;-1.26;87.33;99222.25;7220854;40;20377;31
2024/01/19 05:38:15;;;;;;;11.20;6.40;;;;;;;-1.25;86.87;99250.38;7195344;40;20607;31
2024/01/19 05:43:35;;;;;;;9.40;6.07;;;;;;;-1.49;85.76;99250.03;7276082;39;20246;31
2024/01/19 05:49:11;;;;;;;11.90;6.90;;;;;;;-1.74;86.48;99257.69;7306360;39;20256;31
2024/01/19 05:54:48;;;;;;;10.80;7.05;;;;;;;-1.88;86.08;99277.81;7279182;40;20690;31
2024/01/19 06:00:25;;;;;;;10.55;6.85;;;;;;;-1.94;87.31;99286.13;7240377;40;20379;31
2024/01/19 06:06:01;;;;;;;11.05;6.70;;;;;;;-1.89;86.93;99296.41;7234983;40;20396;31
2024/01/19 06:11:36;;;;;;;11.70;7.00;;;;;;;-1.72;86.64;99298.94;7266126;39;20370;31
2024/01/19 06:16:57;;;;;;;10.60;7.00;;;;;;;-1.62;86.17;99307.19;7255960;40;20662;31
2024/01/19 06:22:33;;;;;;;9.90;7.10;;;;;;;-1.61;86.12;99317.66;7242115;40;20380;31
2024/01/19 06:28:11;;;;;;;9.10;6.75;;;;;;;-1.61;85.61;99322.09;7222256;40;20719;31
2024/01/19 06:33:46;;;;;;;15.43;7.60;;;;;;;-1.61;86.39;99341.44;7190303;40;20277;31
2024/01/19 06:39:21;;;;;;;13.10;7.27;;;;;;;-1.57;86.33;99353.53;7118203;40;20305;31
2024/01/19 06:44:57;;;;;;;11.33;7.57;;;;;;;-1.49;85.83;99361.03;7196001;40;20243;31
2024/01/19 06:50:32;;;;;;;11.50;7.70;;;;;;;-1.47;86.30;99375.03;7206269;40;20254;31
2024/01/19 06:56:09;;;;;;;10.53;7.30;;;;;;;-1.52;86.12;99379.72;7214222;40;20254;31
2024/01/19 07:01:45;;;;;;;13.27;7.77;;;;;;;-1.49;85.33;99392.75;7227480;40;20747;31
2024/01/19 07:07:05;;;;;;;13.23;7.30;;;;;;;-1.56;85.68;99400.19;7226753;40;20384;31
2024/01/19 07:12:42;;;;;;;13.17;7.70;;;;;;;-1.69;85.41;99414.16;7238621;40;20693;31
2024/01/19 07:18:03;;;;;;;11.77;7.37;;;;;;;-1.75;85.51;99430.34;7194023;40;20397;31
2024/01/19 07:23:21;;;;;;;12.05;7.75;;;;;;;-1.75;85.25;99430.34;7253707;39;20242;31
2024/01/19 07:28:58;;;;;;;10.70;7.30;;;;;;;-1.77;85.16;99445.44;7276808;39;20308;31
2024/01/19 07:34:32;;;;;;;12.80;8.30;;;;;;;-1.73;85.98;99452.25;7246951;40;20261;31
2024/01/19 07:39:53;;;;;;;11.07;8.03;;;;;;;-1.64;85.68;99467.59;7245288;40;20231;31
2024/01/19 07:45:26;;;;;;;11.80;8.10;;;;;;;-1.66;85.61;99472.09;7222705;40;20294;31
2024/01/19 07:50:47;;;;;;;11.15;7.90;;;;;;;-1.68;85.46;99488.06;7201135;40;20245;31
2024/01/19 07:56:07;;;;;;;12.68;8.38;;;;;;;-1.65;85.55;99485.25;7240938;40;21390;31
2024/01/19 08:01:58;;;;;;;12.40;8.17;;;;;;;-1.65;86.15;99501.09;7233326;40;20686;31
2024/01/19 08:07:19;;;;;;;12.07;7.83;;;;;;;-1.63;86.18;99509.81;7157079;40;20239;31
2024/01/19 08:12:53;;;;;;;14.60;9.57;;;;;;;-1.76;85.82;99508.75;7229043;40;20473;31
2024/01/19 08:18:33;;;;;;;16.17;9.10;;;;;;;-1.73;86.11;99515.66;7178869;40;21386;31
2024/01/19 08:23:48;;;;;;;13.72;8.96;;;;;;;-1.60;85.91;99520.19;7180133;40;21482;31
2024/01/19 08:29:08;;;;;;;12.73;8.60;;;;;;;-1.58;85.45;99505.09;7269089;40;20315;31
2024/01/19 08:34:46;;;;;;;11.60;7.77;;;;;;;-1.68;85.44;99516.25;7304651;39;20679;31
2024/01/19 08:40:22;;;;;;;10.10;7.30;;;;;;;-1.64;84.95;99523.09;7311952;39;20380;31
2024/01/19 08:45:56;;;;;;;12.43;7.83;;;;;;;-1.57;85.76;99529.72;7217795;40;20352;31
2024/01/19 08:51:51;;;;;;;12.17;7.83;;;;;;;-1.38;85.91;99547.16;7238523;40;20433;31
2024/01/19 09:02:15;;;;;;;15.00;8.30;;;;;;;-1.22;85.94;99573.59;7237318;40;20684;31
2024/01/19 09:07:51;;;;;;;12.87;8.27;;;;;;;-1.21;86.60;99572.69;7254428;40;20363;31
2024/01/19 09:18:30;;;;;;;15.00;9.53;;;;;;;-1.01;86.58;99603.34;7280427;39;20698;31
2024/01/19 09:24:06;;;;;;;13.80;8.40;;;;;;;-0.87;85.63;99615.78;7237638;40;20729;31
2024/01/19 09:29:26;;;;;;;13.53;8.63;;;;;;;-0.95;86.06;99627.66;7197253;40;20224;31
2024/01/19 09:35:01;;;;;;;12.40;8.20;;;;;;;-1.19;86.96;99636.06;7180240;40;20258;31
2024/01/19 09:40:35;;;;;;;14.43;8.30;;;;;;;-1.20;86.83;99643.13;7217787;39;20381;31
2024/01/19 09:46:10;;;;;;;13.07;7.90;;;;;;;-1.14;87.94;99658.66;7236245;40;20253;31
2024/01/19 09:51:47;;;;;;;13.65;9.15;;;;;;;-0.96;87.54;99665.59;7197103;40;20250;31
2024/01/19 09:57:24;;;;;;;8.20;5.10;;;;;;;-0.88;87.93;99674.94;7143085;40;20274;31
2024/01/19 10:02:59;;;;;;;12.63;8.00;;;;;;;-0.81;87.00;99689.53;7159496;40;20243;31
2024/01/19 10:08:36;;;;;;;11.10;7.20;;;;;;;-0.77;87.70;99701.66;7161415;40;20243;31
2024/01/19 10:14:10;;;;;;;12.20;8.40;;;;;;;-0.78;87.92;99694.66;7166976;40;20240;31
2024/01/19 10:19:45;;;;;;;14.87;9.40;;;;;;;-0.64;88.13;99700.03;7138980;40;20264;31
2024/01/19 10:25:20;;;;;;;14.57;8.97;;;;;;;-0.63;87.95;99702.63;7137005;40;20378;31
2024/01/19 10:30:56;;;;;;;14.00;8.60;;;;;;;-0.45;87.83;99700.75;7180782;40;20239;31
2024/01/19 10:36:17;;;;;;;12.50;8.23;;;;;;;-0.21;87.53;99704.66;7127855;40;20232;31
2024/01/19 10:41:52;;;;;;;14.90;9.80;;;;;;;0.00;87.30;99711.37;7163028;40;20317;31
2024/01/19 10:47:29;;;;;;;14.40;9.20;;;;;;;0.23;87.27;99718.00;7179095;40;20243;31
2024/01/19 10:53:04;;;;;;;13.20;8.90;;;;;;;0.41;86.18;99718.72;7188509;40;20227;31
2024/01/19 10:58:39;;;;;;;12.00;7.90;;;;;;;0.50;85.97;99730.56;7217526;40;20219;31
2024/01/19 11:04:13;;;;;;;10.75;7.00;;;;;;;0.30;86.81;99734.41;7195807;40;20310;31
2024/01/19 11:09:48;;;;;;;16.83;9.47;;;;;;;0.23;86.92;99733.03;7219455;40;20395;31
2024/01/19 11:15:23;;;;;;;13.73;8.67;;;;;;;0.30;87.22;99740.56;7200590;40;20258;31
2024/01/19 11:20:59;;;;;;;13.80;9.25;;;;;;;0.43;86.85;99740.72;7238515;40;20242;31
2024/01/19 11:26:35;;;;;;;14.90;8.75;;;;;;;0.38;85.88;99742.78;7209043;40;20247;31
2024/01/19 11:32:10;;;;;;;12.73;8.70;;;;;;;0.37;86.21;99746.34;7148300;40;20318;31
2024/01/19 11:37:53;;;;;;;16.57;8.87;;;;;;;0.38;86.53;99748.94;6996795;40;21232;31
2024/01/19 11:43:35;;;;;;;13.37;8.07;;;;;;;0.36;86.28;99752.59;7190969;40;20367;31
2024/01/19 11:48:55;;;;;;;15.17;9.30;;;;;;;0.35;87.02;99758.88;7176567;40;21347;31
2024/01/19 11:54:32;;;;;;;15.47;9.27;;;;;;;0.35;86.55;99754.38;7208943;40;20339;31
2024/01/19 12:00:08;;;;;;;16.00;8.77;;;;;;;0.36;86.65;99750.81;7199342;40;20254;31
2024/01/19 12:05:42;;;;;;;14.93;8.70;;;;;;;0.46;86.95;99756.44;7141863;40;20267;31
2024/01/19 12:11:19;;;;;;;13.25;9.20;;;;;;;0.54;86.85;99770.09;7180074;40;20250;31
2024/01/19 12:16:54;;;;;;;15.25;8.20;;;;;;;0.51;86.37;99758.81;7259786;40;20266;31
2024/01/19 12:27:33;;;;;;;13.60;8.60;;;;;;;0.46;86.43;99772.34;7287440;39;21324;31
2024/01/19 12:37:54;;;;;;;10.37;7.03;;;;;;;0.60;86.22;99785.66;7303321;39;21422;31
2024/01/19 12:48:35;;;;;;;10.05;6.30;;;;;;;0.57;86.11;99784.97;7330288;39;20404;31
2024/01/19 12:59:20;;;;;;;10.23;6.60;;;;;;;0.63;85.92;99772.19;7360690;39;20684;31
2024/01/19 13:04:57;;;;;;;8.80;6.25;;;;;;;0.70;85.83;99776.19;7235404;40;20589;31
2024/01/19 13:10:33;;;;;;;8.93;5.83;;;;;;;0.80;86.11;99780.00;7212915;40;20336;31
2024/01/19 13:15:52;;;;;;;9.20;5.80;;;;;;;0.87;86.11;99780.50;7216764;40;20243;31
2024/01/19 13:21:30;;;;;;;8.95;5.55;;;;;;;0.88;85.89;99780.41;7244652;39;20464;31
2024/01/19 13:27:12;;;;;;;10.73;6.23;;;;;;;0.90;85.66;99781.19;7269967;40;20241;31
2024/01/19 13:32:34;;;;;;;9.50;5.70;;;;;;;0.94;86.19;99767.72;7227020;40;20246;31
2024/01/19 13:38:11;;;;;;;10.53;6.03;;;;;;;0.94;85.67;99778.34;7219557;40;20305;31
2024/01/19 13:43:44;;;;;;;10.60;6.60;;;;;;;0.94;85.70;99783.62;7222338;40;20319;31
2024/01/19 13:49:04;;;;;;;9.40;6.43;;;;;;;1.01;85.87;99790.31;7220886;40;20243;31
2024/01/19 13:59:41;;;;;;;8.90;6.05;;;;;;;0.96;86.03;99806.50;7246737;40;21268;31
2024/01/19 14:05:16;;;;;;;10.60;6.73;;;;;;;0.90;86.18;99813.03;7265068;40;20354;31
2024/01/19 14:10:52;;;;;;;11.90;7.15;;;;;;;0.92;86.24;99810.28;7266331;39;20245;31
2024/01/19 14:16:27;;;;;;;9.00;6.60;;;;;;;0.84;85.21;99818.69;7217461;40;20254;31
2024/01/19 14:22:02;;;;;;;13.85;7.75;;;;;;;0.79;86.28;99826.06;7240300;39;20254;31
2024/01/19 14:27:37;;;;;;;12.00;7.20;;;;;;;0.75;86.33;99837.78;7186563;40;20405;31
2024/01/19 14:33:13;;;;;;;11.70;7.90;;;;;;;0.75;86.30;99831.63;7172764;40;20413;31
2024/01/19 14:38:34;;;;;;;12.77;7.10;;;;;;;0.83;86.72;99838.19;7178066;40;21349;31
2024/01/19 14:49:14;;;;;;;13.40;7.03;;;;;;;0.73;86.17;99850.31;7180376;40;20740;31
2024/01/19 14:54:51;;;;;;;12.47;7.20;;;;;;;0.68;86.18;99862.97;7300120;39;20241;31
2024/01/19 15:00:26;;;;;;;13.15;7.65;;;;;;;0.62;86.43;99873.91;7304013;39;20280;31
2024/01/19 15:06:01;;;;;;;14.20;8.25;;;;;;;0.60;86.40;99870.53;7297296;39;20268;31
2024/01/19 15:11:33;;;;;;;17.80;10.65;;;;;;;0.67;86.35;99882.47;7250317;40;20242;31
2024/01/19 15:16:53;;;;;;;18.90;12.35;;;;;;;0.70;86.85;99886.78;7242040;40;20285;31
2024/01/19 15:22:30;;;;;;;14.07;9.13;;;;;;;0.66;86.30;99893.19;7230512;40;20328;31
2024/01/19 15:27:50;;;;;;;14.83;9.20;;;;;;;0.68;86.41;99907.22;7226507;40;20331;31
2024/01/19 15:33:24;;;;;;;12.00;7.60;;;;;;;0.68;86.53;99917.81;7276903;40;20245;31
2024/01/19 15:39:02;;;;;;;13.55;7.75;;;;;;;0.66;86.35;99925.03;7276754;39;20702;31
2024/01/19 15:44:23;;;;;;;10.73;7.73;;;;;;;0.69;86.04;99928.34;7208428;40;20360;31
2024/01/19 15:49:42;;;;;;;13.00;8.20;;;;;;;0.70;86.85;99945.13;7222242;40;20290;31
2024/01/19 15:55:16;;;;;;;12.53;8.73;;;;;;;0.59;85.99;99939.56;7210505;40;20245;31
2024/01/19 16:00:37;;;;;;;12.77;8.80;;;;;;;0.60;86.29;99955.37;7197392;40;20328;31
2024/01/19 16:05:58;;;;;;;40.25;19.25;;;;;;;0.56;86.12;99964.47;7199025;40;20249;31
2024/01/19 16:11:34;;;;;;;15.15;8.85;;;;;;;0.45;86.18;99964.19;7170938;40;20247;31
2024/01/19 16:17:10;;;;;;;14.00;8.90;;;;;;;0.42;85.98;99973.16;7215898;40;20395;31
2024/01/19 16:22:31;;;;;;;12.55;8.45;;;;;;;0.44;86.55;99979.22;7287667;39;20252;31
2024/01/19 16:28:08;;;;;;;17.93;9.07;;;;;;;0.44;86.31;99983.66;7276082;39;20459;31
2024/01/19 16:33:29;;;;;;;13.27;8.60;;;;;;;0.37;86.49;99984.97;7201202;40;20320;31
2024/01/19 16:38:49;;;;;;;17.43;10.77;;;;;;;0.29;86.18;99990.69;7208418;40;20265;31
2024/01/19 16:44:25;;;;;;;15.23;10.90;;;;;;;0.31;85.90;99982.62;7184606;40;20262;31
2024/01/19 16:49:45;;;;;;;15.50;9.90;;;;;;;0.39;86.01;99983.94;7267268;39;20249;31
2024/01/19 16:55:21;;;;;;;12.50;8.63;;;;;;;0.36;85.68;99981.44;7308023;39;20248;31
2024/01/19 17:00:57;;;;;;;13.20;8.90;;;;;;;0.30;85.63;99996.84;7245513;40;20314;31
2024/01/19 17:06:32;;;;;;;13.97;8.73;;;;;;;0.32;86.36;100003.75;7217915;40;20244;31
2024/01/19 17:11:52;;;;;;;13.55;8.60;;;;;;;0.31;86.06;100002.03;7197573;40;20318;31
2024/01/19 17:17:28;;;;;;;10.65;7.80;;;;;;;0.20;85.16;100008.88;7180688;40;20427;31
2024/01/19 17:23:03;;;;;;;12.50;7.40;;;;;;;0.15;85.57;100021.50;7174755;40;20413;31
2024/01/19 17:28:43;;;;;;;12.27;7.63;;;;;;;0.09;85.01;100035.94;7162125;40;20228;31
2024/01/19 17:34:16;;;;;;;12.83;7.67;;;;;;;-0.06;84.26;100037.59;7218228;40;20321;31
2024/01/19 17:39:52;;;;;;;13.00;8.50;;;;;;;-0.24;85.00;100046.50;7219179;40;20246;31
2024/01/19 17:45:28;;;;;;;14.10;7.35;;;;;;;-0.30;84.75;100061.81;7226603;40;20371;31
2024/01/19 17:51:05;;;;;;;13.00;7.50;;;;;;;-0.44;83.63;100053.72;7242390;40;20390;31
2024/01/19 17:56:26;;;;;;;12.45;7.95;;;;;;;-0.48;84.47;100074.19;7216272;40;20377;31
2024/01/19 18:02:01;;;;;;;14.80;8.10;;;;;;;-0.63;83.20;100077.59;7264554;40;20425;31
2024/01/19 18:07:37;;;;;;;11.97;7.57;;;;;;;-0.74;84.34;100085.19;7265050;40;20256;31
2024/01/19 18:13:12;;;;;;;12.33;7.17;;;;;;;-0.82;84.64;100092.66;7274923;40;20246;31
2024/01/19 18:18:48;;;;;;;8.80;6.05;;;;;;;-0.84;84.12;100094.53;7298087;39;20260;31
2024/01/19 18:24:25;;;;;;;12.10;6.80;;;;;;;-1.13;81.74;100102.03;7211288;40;20375;31
2024/01/19 18:29:43;;;;;;;10.80;6.30;;;;;;;-1.30;84.00;100122.25;6986389;40;20245;31
2024/01/19 18:35:20;;;;;;;11.57;7.00;;;;;;;-1.35;83.44;100127.75;7189652;40;20232;31
2024/01/19 18:40:57;;;;;;;10.03;6.53;;;;;;;-1.45;82.93;100118.53;7166609;40;20239;31
2024/01/19 18:46:18;;;;;;;13.50;6.70;;;;;;;-1.34;84.20;100132.09;7185780;40;20379;31
2024/01/19 18:51:54;;;;;;;10.90;5.70;;;;;;;-1.36;83.95;100112.78;7267564;40;20241;31
2024/01/19 18:57:32;;;;;;;12.45;5.70;;;;;;;-1.44;82.81;100126.38;7198125;40;20317;31
2024/01/19 19:02:53;;;;;;;10.45;5.65;;;;;;;-1.43;83.46;100125.44;7169679;40;20391;31
2024/01/19 19:08:27;;;;;;;9.80;5.80;;;;;;;-1.45;83.09;100126.47;7198266;40;20389;31
2024/01/19 19:14:00;;;;;;;11.60;6.50;;;;;;;-1.50;82.66;100142.53;7156331;40;20242;31
2024/01/19 19:19:36;;;;;;;10.50;6.30;;;;;;;-1.56;83.75;100147.22;7172236;40;20351;31
2024/01/19 19:25:13;;;;;;;8.83;5.70;;;;;;;-1.60;82.46;100166.78;7160271;40;20243;31
2024/01/19 19:30:48;;;;;;;9.53;5.50;;;;;;;-1.63;83.85;100172.19;7168429;40;20239;31
2024/01/19 19:36:23;;;;;;;8.55;5.10;;;;;;;-1.68;83.28;100187.38;7209926;40;20242;31
2024/01/19 19:41:46;;;;;;;9.35;5.15;;;;;;;-1.71;83.33;100195.47;7206978;40;20286;31
2024/01/19 19:47:16;;;;;;;8.70;5.15;;;;;;;-1.77;82.73;100195.69;7204086;40;21401;31
2024/01/19 19:52:52;;;;;;;8.90;4.90;;;;;;;-1.85;82.90;100201.31;7165204;40;20348;31
2024/01/19 20:03:33;;;;;;;8.50;5.40;;;;;;;-2.09;82.48;100205.81;7257004;39;20360;31
2024/01/19 20:09:09;;;;;;;12.50;5.60;;;;;;;-2.11;83.36;100206.81;7271686;40;20354;31
2024/01/19 20:19:50;;;;;;;10.93;5.73;;;;;;;-2.22;83.21;100220.44;7216260;40;20276;31
2024/01/19 20:30:12;;;;;;;7.90;4.63;;;;;;;-2.22;83.44;100244.22;7300519;39;21431;31
2024/01/19 20:35:48;;;;;;;7.20;4.97;;;;;;;-2.30;82.77;100236.59;7318568;39;20291;31
2024/01/19 20:41:11;;;;;;;9.27;5.30;;;;;;;-2.27;83.57;100252.31;7236502;40;20242;31
2024/01/19 20:46:30;;;;;;;9.33;5.00;;;;;;;-2.26;84.10;100247.88;7237155;40;20417;31
2024/01/19 20:52:05;;;;;;;6.87;4.60;;;;;;;-2.24;83.32;100246.06;7245071;40;20244;31
2024/01/19 20:57:40;;;;;;;8.20;5.20;;;;;;;-2.13;83.96;100241.19;7224507;40;20258;31
2024/01/19 21:03:01;;;;;;;9.25;4.80;;;;;;;-2.22;83.51;100243.34;7233572;39;20461;31
2024/01/19 21:08:36;;;;;;;7.80;4.90;;;;;;;-2.40;83.09;100244.94;7231540;40;20250;31
2024/01/19 21:14:12;;;;;;;10.03;7.07;;;;;;;-2.63;81.44;100252.91;7245440;40;20242;31
2024/01/19 21:19:47;;;;;;;8.30;4.95;;;;;;;-2.86;82.09;100248.47;7265337;40;20322;31
2024/01/19 21:25:24;;;;;;;6.93;4.83;;;;;;;-2.90;82.19;100249.50;7225923;40;20372;31
2024/01/19 21:30:59;;;;;;;8.73;4.80;;;;;;;-2.87;82.95;100260.81;7177715;40;20259;31
2024/01/19 21:36:21;;;;;;;7.67;4.30;;;;;;;-3.03;81.95;100259.66;7183276;40;20239;31
2024/01/19 21:41:56;;;;;;;9.90;5.00;;;;;;;-3.03;83.08;100254.37;7176322;40;20397;31
2024/01/19 21:47:32;;;;;;;6.50;4.30;;;;;;;-2.89;83.18;100257.34;7207600;40;20239;31
2024/01/19 21:53:07;;;;;;;9.00;4.65;;;;;;;-2.88;82.11;100260.84;7237818;40;20246;31
2024/01/19 21:58:43;;;;;;;7.27;4.07;;;;;;;-3.05;81.20;100272.00;7210789;40;20475;31
2024/01/19 22:04:07;;;;;;;6.73;4.33;;;;;;;-3.03;82.40;100286.03;7280210;40;20245;31
2024/01/19 22:09:26;;;;;;;6.20;4.20;;;;;;;-3.50;80.13;100279.75;7248638;40;20258;31
2024/01/19 22:15:01;;;;;;;8.00;4.30;;;;;;;-3.57;81.67;100294.06;7264783;40;20270;31
2024/01/19 22:20:22;;;;;;;6.40;4.37;;;;;;;-3.57;81.21;100294.06;7198933;40;20323;31
2024/01/19 22:25:43;;;;;;;7.73;4.37;;;;;;;-3.51;81.65;100303.53;7227146;40;20245;31
2024/01/19 22:31:20;;;;;;;6.73;3.53;;;;;;;-3.79;79.53;100312.34;7212446;40;20245;31
2024/01/19 22:36:52;;;;;;;6.25;4.00;;;;;;;-4.28;80.10;100314.78;7183864;40;20278;31
2024/01/19 22:47:29;;;;;;;7.78;4.18;;;;;;;-4.33;81.02;100327.22;7179459;40;20561;31
2024/01/19 22:53:05;;;;;;;5.70;3.90;;;;;;;-4.18;81.95;100318.87;7195281;39;20246;31
2024/01/19 22:58:41;;;;;;;8.70;4.20;;;;;;;-4.22;80.63;100319.88;7238873;40;20241;31
2024/01/19 23:04:16;;;;;;;8.90;4.30;;;;;;;-4.35;81.70;100311.50;7222250;40;20367;31
2024/01/19 23:09:36;;;;;;;6.23;3.60;;;;;;;-4.37;80.24;100336.09;7218790;40;20242;31
2024/01/19 23:15:12;;;;;;;6.90;4.50;;;;;;;-4.57;81.13;100360.38;7203072;40;20335;31
2024/01/19 23:20:48;;;;;;;5.57;3.83;;;;;;;-4.44;81.36;100361.75;7164980;40;20306;31
2024/01/19 23:26:09;;;;;;;7.00;4.10;;;;;;;-4.29;81.49;100349.91;7174046;40;20250;31
2024/01/19 23:31:29;;;;;;;7.73;4.57;;;;;;;-4.22;81.91;100352.31;7193802;40;20246;31
2024/01/19 23:37:06;;;;;;;6.67;3.70;;;;;;;-4.29;79.35;100345.50;7215913;40;20359;31
2024/01/19 23:42:41;;;;;;;7.77;3.93;;;;;;;-4.71;80.73;100342.37;7203554;40;20243;31
2024/01/19 23:48:16;;;;;;;6.70;4.07;;;;;;;-4.72;81.26;100345.87;7258306;40;20261;31
2024/01/19 23:53:52;;;;;;;6.27;3.90;;;;;;;-4.82;80.41;100349.66;7207777;40;20297;31
2024/01/19 23:59:13;;;;;;;6.20;3.93;;;;;;;-4.82;81.16;100354.94;7217523;40;20253;31
